Time;durP1;ratioP1;P1;durP2;ratioP2;P2;SDS_P1;SDS_P2;PMS_P1;PMS_P2;Temp;Humidity;BMP_temperature;BMP_pressure;BME280_temperature;BME280_humidity;BME280_pressure;Samples;Min_cycle;Max_cycle;Signal;HPM_P1;HPM_P2
2023/02/07 00:05:18;;;;;;;91.10;42.80;;;;;;;-3.44;57.11;101418.94;235524;1196;124755;-67
2023/02/07 00:11:48;;;;;;;87.40;41.90;;;;;;;-3.62;57.20;101423.91;235474;1193;138635;-64
2023/02/07 00:17:44;;;;;;;91.20;42.10;;;;;;;-3.67;57.44;101426.16;235289;1193;139545;-65
2023/02/07 00:38:24;;;;;;;102.80;44.60;;;;;;;-4.28;58.12;101404.07;235290;1193;106785;-66
2023/02/07 00:44:13;;;;;;;;;;;;;;;-4.33;58.05;101400.76;235315;1194;139072;-68
2023/02/07 00:50:37;;;;;;;102.30;46.50;;;;;;;-4.46;58.22;101399.44;235439;1193;125047;-69
2023/02/07 00:56:39;;;;;;;;;;;;;;;;;;;;;
2023/02/07 01:03:02;;;;;;;112.70;52.00;;;;;;;-4.48;57.82;101381.52;235387;1193;139489;-64
2023/02/07 01:09:11;;;;;;;116.40;53.10;;;;;;;-4.51;57.81;101374.66;235321;1194;139115;-66
2023/02/07 01:15:31;;;;;;;121.40;53.00;;;;;;;-4.53;57.96;101374.23;235065;1193;138862;-66
2023/02/07 01:22:09;;;;;;;;;;;;;;;;;;;;;
2023/02/07 01:28:22;;;;;;;120.30;58.20;;;;;;;-4.64;58.25;101371.23;235400;1192;139060;-67
2023/02/07 01:34:26;;;;;;;128.60;57.50;;;;;;;-4.67;58.72;101369.55;235027;1193;139106;-66
2023/02/07 01:40:26;;;;;;;120.10;53.50;;;;;;;-4.70;58.60;101365.81;235416;1193;139230;-66
2023/02/07 01:46:34;;;;;;;119.00;52.10;;;;;;;-4.70;58.64;101357.83;235401;1193;140356;-67
2023/02/07 01:53:26;;;;;;;113.10;53.30;;;;;;;-4.65;58.15;101353.02;235265;1193;139587;-70
2023/02/07 01:59:57;;;;;;;109.00;50.70;;;;;;;-4.63;58.09;101340.64;235395;1192;139600;-68
2023/02/07 02:05:49;;;;;;;91.90;41.60;;;;;;;-4.60;58.08;101332.60;235359;1193;139075;-68
2023/02/07 02:12:26;;;;;;;85.80;40.90;;;;;;;-4.63;58.21;101343.22;235298;1196;139002;-67
2023/02/07 02:18:28;;;;;;;;;;;;;;;-4.67;58.34;101355.00;235555;1192;139043;-67
2023/02/07 02:24:56;;;;;;;;;;;;;;;;;;;;;
2023/02/07 02:31:11;;;;;;;;;;;;;;;;;;;;;
2023/02/07 02:44:12;;;;;;;72.30;35.00;;;;;;;-4.82;57.84;101367.95;234744;1197;138734;-67
2023/02/07 02:50:15;;;;;;;73.80;34.00;;;;;;;-4.85;58.33;101368.55;234680;1199;138850;-68
2023/02/07 02:56:46;;;;;;;78.30;33.70;;;;;;;-4.88;58.38;101369.30;234775;1198;138946;-66
2023/02/07 03:03:21;;;;;;;68.80;32.70;;;;;;;-4.88;58.58;101378.28;235415;1193;139141;-65
2023/02/07 03:09:50;;;;;;;68.20;32.50;;;;;;;-4.83;58.61;101374.51;235258;1193;138816;-67
2023/02/07 03:16:30;;;;;;;63.20;30.50;;;;;;;-4.80;58.61;101376.68;235076;1193;138931;-68
2023/02/07 03:23:25;;;;;;;71.10;29.50;;;;;;;-4.81;58.66;101375.79;235184;1193;138819;-67
2023/02/07 03:28:56;;;;;;;58.90;30.20;;;;;;;-4.75;58.63;101387.80;235358;1193;139092;-68
2023/02/07 03:35:17;;;;;;;;;;;;;;;;;;;;;
2023/02/07 03:41:37;;;;;;;50.80;24.60;;;;;;;-4.72;58.91;101383.57;235233;1193;139067;-67
2023/02/07 03:47:42;;;;;;;;;;;;;;;;;;;;;
2023/02/07 03:59:22;;;;;;;59.60;28.10;;;;;;;-4.64;58.50;101377.65;235154;1193;139108;-66
2023/02/07 04:05:48;;;;;;;56.20;27.30;;;;;;;-4.58;58.52;101380.96;235279;1193;139469;-67
2023/02/07 04:11:54;;;;;;;58.00;28.00;;;;;;;-4.63;58.31;101375.40;235331;1193;140142;-72
2023/02/07 04:25:29;;;;;;;;;;;;;;;;;;;;;
2023/02/07 04:31:54;;;;;;;;;;;;;;;;;;;;;
2023/02/07 04:38:17;;;;;;;65.40;31.20;;;;;;;-4.95;58.65;101387.72;234682;1196;139484;-67
2023/02/07 04:44:34;;;;;;;;;;;;;;;;;;;;;
2023/02/07 04:56:54;;;;;;;;;;;;;;;;;;;;;
2023/02/07 05:03:17;;;;;;;85.90;39.20;;;;;;;-5.17;58.15;101394.81;235536;1192;139444;-66
2023/02/07 05:09:33;;;;;;;;;;;;;;;;;;;;;
2023/02/07 05:16:32;;;;;;;90.20;42.20;;;;;;;-5.25;58.77;101383.77;235553;1193;138883;-69
2023/02/07 05:22:36;;;;;;;89.60;40.90;;;;;;;-5.22;58.59;101384.23;235124;1193;139400;-67
2023/02/07 05:29:00;;;;;;;89.40;42.10;;;;;;;-5.21;58.74;101411.43;235524;1193;139795;-69
2023/02/07 05:34:35;;;;;;;;;;;;;;;;;;;;;
2023/02/07 05:40:56;;;;;;;;;;;;;;;;;;;;;
2023/02/07 05:47:39;;;;;;;97.00;45.90;;;;;;;-5.10;58.97;101406.17;235343;1192;139462;-64
2023/02/07 05:53:20;;;;;;;;;;;;;;;;;;;;;
2023/02/07 05:59:37;;;;;;;;;;;;;;;;;;;;;
2023/02/07 06:05:45;;;;;;;;;;;;;;;;;;;;;
2023/02/07 06:11:15;;;;;;;111.30;53.40;;;;;;;-4.98;59.21;101409.42;235337;1194;139228;-67
2023/02/07 06:17:26;;;;;;;112.10;52.20;;;;;;;-4.94;59.40;101411.48;235549;1192;139519;-69
2023/02/07 06:23:32;;;;;;;119.40;56.80;;;;;;;-4.84;59.47;101419.46;235336;1193;139118;-66
2023/02/07 06:41:31;;;;;;;;;;;;;;;;;;;;;
2023/02/07 06:47:34;;;;;;;;;;;;;;;;;;;;;
2023/02/07 06:53:53;;;;;;;121.40;55.30;;;;;;;-4.38;59.49;101413.58;235459;1193;139900;-65
2023/02/07 06:59:22;;;;;;;137.30;60.50;;;;;;;-4.26;59.25;101415.73;235540;1193;139447;-68
2023/02/07 07:05:09;;;;;;;126.40;59.30;;;;;;;-4.18;59.19;101410.14;235308;1194;140218;-68
2023/02/07 07:11:05;;;;;;;138.80;60.10;;;;;;;-4.09;59.13;101410.48;235422;1196;138966;-68
2023/02/07 07:17:22;;;;;;;128.20;57.10;;;;;;;-4.01;59.46;101409.38;235372;1193;139364;-68
2023/02/07 07:23:09;;;;;;;121.10;55.00;;;;;;;-4.05;59.65;101403.67;235710;1193;139288;-68
2023/02/07 07:29:21;;;;;;;;;;;;;;;;;;;;;
2023/02/07 07:36:04;;;;;;;;;;;;;;;;;;;;;
2023/02/07 07:42:24;;;;;;;127.70;58.40;;;;;;;-3.97;60.06;101433.42;234718;1198;138956;-67
2023/02/07 07:48:55;;;;;;;128.70;58.30;;;;;;;-3.90;59.96;101436.42;235427;1193;139105;-67
2023/02/07 07:55:16;;;;;;;;;;;;;;;;;;;;;
2023/02/07 08:08:36;;;;;;;;;;;;;;;;;;;;;
2023/02/07 08:14:40;;;;;;;109.30;52.20;;;;;;;-3.56;60.21;101409.68;235167;1196;139212;-69
2023/02/07 08:20:56;;;;;;;113.10;50.70;;;;;;;-3.46;60.26;101398.91;235127;1196;139530;-69
2023/02/07 08:26:33;;;;;;;111.60;51.60;;;;;;;-3.42;60.22;101399.05;235230;1193;138579;-68
2023/02/07 08:32:25;;;;;;;;;;;;;;;;;;;;;
2023/02/07 08:38:49;;;;;;;126.60;57.10;;;;;;;-3.36;61.02;101400.63;235346;1195;139252;-71
2023/02/07 08:45:14;;;;;;;116.50;55.80;;;;;;;-3.38;61.40;101398.84;235225;1193;139897;-70
2023/02/07 08:51:38;;;;;;;135.10;59.80;;;;;;;-3.19;61.39;101393.54;235262;1193;139771;-72
2023/02/07 08:58:02;;;;;;;140.30;68.70;;;;;;;-2.93;63.19;101388.46;235219;1194;138552;-69
2023/02/07 09:04:26;;;;;;;123.20;56.50;;;;;;;-2.40;62.98;101375.58;235236;1195;139337;-69
2023/02/07 09:10:40;;;;;;;123.00;55.40;;;;;;;-2.53;60.58;101377.13;235319;1193;139851;-69
2023/02/07 09:17:36;;;;;;;149.10;67.10;;;;;;;-2.60;60.99;101370.66;235427;1196;138932;-69
2023/02/07 09:29:46;;;;;;;123.50;58.50;;;;;;;-2.30;61.66;101357.09;235259;1193;139486;-65
2023/02/07 09:35:52;;;;;;;;;;;;;;;;;;;;;
2023/02/07 09:42:25;;;;;;;126.60;58.70;;;;;;;-2.37;60.93;101364.88;235311;1193;139494;-66
2023/02/07 09:48:42;;;;;;;;;;;;;;;;;;;;;
2023/02/07 09:55:05;;;;;;;;;;;;;;;;;;;;;
2023/02/07 10:01:34;;;;;;;124.90;60.60;;;;;;;-2.29;62.14;101354.50;235788;1192;140483;-70
2023/02/07 10:14:46;;;;;;;;;;;;;;;;;;;;;
2023/02/07 10:35:38;;;;;;;;;;;;;;;;;;;;;
2023/02/07 10:42:10;;;;;;;107.60;53.70;;;;;;;-1.49;61.43;101351.35;234572;1192;138887;-67
2023/02/07 10:49:24;;;;;;;;;;;;;;;;;;;;;
2023/02/07 10:55:11;;;;;;;106.90;51.10;;;;;;;-1.45;61.88;101348.31;235382;1193;139479;-66
2023/02/07 11:02:49;;;;;;;107.30;52.10;;;;;;;-1.41;61.99;101336.05;231635;1214;637777;-65
2023/02/07 11:08:48;;;;;;;;;;;;;;;;;;;;;
2023/02/07 11:14:55;;;;;;;95.60;46.90;;;;;;;-1.11;61.47;101316.01;234622;1199;138910;-68
2023/02/07 11:21:10;;;;;;;88.80;45.80;;;;;;;-1.01;61.35;101316.23;234676;1202;138892;-68
2023/02/07 11:27:37;;;;;;;88.70;45.50;;;;;;;-0.94;61.22;101310.63;234787;1195;138664;-68
2023/02/07 11:33:50;;;;;;;;;;;;;;;;;;;;;
2023/02/07 11:39:49;;;;;;;;;;;;;;;;;;;;;
2023/02/07 11:45:46;;;;;;;;;;;;;;;;;;;;;
2023/02/07 11:52:12;;;;;;;87.20;43.20;;;;;;;-0.31;60.81;101297.44;235210;1197;139865;-68
2023/02/07 11:57:38;;;;;;;85.30;43.80;;;;;;;-0.24;60.37;101289.02;235393;1193;138359;-68
2023/02/07 12:03:59;;;;;;;88.20;43.90;;;;;;;-0.19;60.45;101280.38;235514;1193;139113;-67
2023/02/07 12:09:58;;;;;;;;;;;;;;;;;;;;;
2023/02/07 12:16:20;;;;;;;116.70;60.20;;;;;;;0.21;60.59;101270.59;235103;1198;139826;-66
2023/02/07 12:22:55;;;;;;;88.90;45.50;;;;;;;0.41;63.12;101263.20;235178;1198;138512;-67
2023/02/07 12:58:19;;;;;;;;;;;;;;;;;;;;;
2023/02/07 13:04:25;;;;;;;94.60;46.20;;;;;;;1.07;58.42;101276.36;234995;1199;139018;-68
2023/02/07 13:11:24;;;;;;;101.10;52.70;;;;;;;0.99;60.50;101283.59;235304;1197;138653;-69
2023/02/07 13:23:51;;;;;;;97.80;50.10;;;;;;;0.94;59.14;101275.84;235249;1193;138714;-68
2023/02/07 13:29:46;;;;;;;103.20;54.60;;;;;;;0.81;59.40;101273.91;235175;1194;138497;-69
2023/02/07 13:36:03;;;;;;;114.00;54.20;;;;;;;0.78;59.54;101278.08;235099;1193;138576;-68
2023/02/07 13:42:18;;;;;;;108.70;53.80;;;;;;;0.74;59.31;101281.52;235323;1196;138755;-65
2023/02/07 13:48:37;;;;;;;103.20;53.30;;;;;;;0.68;59.45;101277.95;235310;1193;138814;-67
2023/02/07 13:54:53;;;;;;;98.50;52.40;;;;;;;0.59;59.83;101280.94;235014;1193;138933;-69
2023/02/07 14:01:10;;;;;;;114.40;57.00;;;;;;;0.53;61.19;101278.41;235343;1193;138187;-67
2023/02/07 14:08:01;;;;;;;109.20;55.20;;;;;;;0.52;60.55;101275.09;235248;1199;111748;-67
2023/02/07 14:14:33;;;;;;;;;;;;;;;;;;;;;
2023/02/07 14:20:40;;;;;;;;;;;;;;;;;;;;;
2023/02/07 14:26:51;;;;;;;;;;;;;;;;;;;;;
2023/02/07 14:33:19;;;;;;;113.60;56.90;;;;;;;0.33;60.45;101278.45;234941;1197;139223;-68
2023/02/07 14:39:32;;;;;;;;;;;;;;;;;;;;;
2023/02/07 14:53:30;;;;;;;115.00;58.50;;;;;;;0.17;61.20;101296.70;235223;1193;138730;-68
2023/02/07 15:00:39;;;;;;;147.20;85.50;;;;;;;0.19;61.85;101301.61;234944;1195;138913;-67
2023/02/07 15:06:32;;;;;;;112.30;57.60;;;;;;;0.32;62.13;101298.67;234797;1195;139925;-67
2023/02/07 15:12:42;;;;;;;118.50;60.30;;;;;;;0.31;61.33;101293.63;234893;1195;139205;-68
2023/02/07 15:19:23;;;;;;;121.10;61.00;;;;;;;0.32;61.37;101300.27;234823;1196;140956;-67
2023/02/07 15:25:46;;;;;;;122.70;60.70;;;;;;;0.35;61.48;101291.77;234670;1196;139711;-66
2023/02/07 15:46:17;;;;;;;;;;;;;;;;;;;;;
2023/02/07 15:53:00;;;;;;;;;;;;;;;;;;;;;
2023/02/07 15:59:28;;;;;;;115.30;61.60;;;;;;;0.26;61.59;101323.91;235363;1196;138204;-64
2023/02/07 16:05:52;;;;;;;124.90;61.80;;;;;;;0.25;61.44;101329.13;235479;1193;139202;-68
2023/02/07 16:12:12;;;;;;;128.00;61.90;;;;;;;0.27;61.65;101333.35;235290;1193;139293;-68
2023/02/07 16:18:27;;;;;;;122.10;63.20;;;;;;;0.26;61.64;101338.05;235335;1194;141525;-69
2023/02/07 16:25:00;;;;;;;155.30;81.30;;;;;;;0.24;61.94;101346.74;235215;1193;139817;-68
2023/02/07 16:31:54;;;;;;;;;;;;;;;;;;;;;
2023/02/07 16:38:04;;;;;;;131.30;68.30;;;;;;;0.44;61.94;101358.95;235136;1193;139197;-66
2023/02/07 16:59:02;;;;;;;129.10;68.10;;;;;;;0.38;62.04;101359.38;234279;1203;138823;-64
2023/02/07 17:04:53;;;;;;;137.00;70.70;;;;;;;0.35;62.07;101364.55;234365;1196;139293;-67
2023/02/07 17:11:01;;;;;;;134.20;71.80;;;;;;;0.32;62.23;101363.47;235274;1196;138270;-66
2023/02/07 17:17:26;;;;;;;135.10;68.00;;;;;;;0.32;62.22;101367.83;235268;1193;138426;-67
2023/02/07 17:23:15;;;;;;;;;;;;;;;;;;;;;
2023/02/07 17:28:39;;;;;;;209.80;115.20;;;;;;;0.36;63.09;101377.66;235492;1193;138384;-67
2023/02/07 17:35:04;;;;;;;139.60;74.10;;;;;;;0.60;63.70;101380.17;235569;1192;138913;-67
2023/02/07 17:47:57;;;;;;;137.60;73.90;;;;;;;0.53;62.21;101389.30;235207;1192;140154;-65
2023/02/07 17:54:10;;;;;;;139.70;72.10;;;;;;;0.47;62.49;101386.06;235507;1193;140284;-66
2023/02/07 18:04:21;;;;;;;136.20;74.70;;;;;;;0.50;62.47;101396.77;234351;1205;648167;-66
2023/02/07 18:10:17;;;;;;;;;;;;;;;;;;;;;
2023/02/07 18:16:10;;;;;;;;;;;;;;;;;;;;;
2023/02/07 18:28:28;;;;;;;127.90;68.20;;;;;;;0.70;62.37;101415.98;234759;1198;138432;-65
2023/02/07 18:33:58;;;;;;;129.60;66.70;;;;;;;0.72;62.45;101420.73;234747;1196;140618;-66
2023/02/07 18:39:59;;;;;;;;;;;;;;;;;;;;;
2023/02/07 18:53:55;;;;;;;;;;;;;;;;;;;;;
2023/02/07 18:59:36;;;;;;;;;;;;;;;;;;;;;
2023/02/07 19:05:32;;;;;;;130.70;68.20;;;;;;;0.98;62.90;101421.84;234677;1198;139981;-67
2023/02/07 19:11:08;;;;;;;129.10;65.90;;;;;;;0.85;62.56;101425.98;235834;1193;138963;-68
2023/02/07 19:32:44;;;;;;;127.10;62.10;;;;;;;0.67;62.51;101452.44;235299;1195;138099;-65
2023/02/07 19:45:58;;;;;;;101.20;54.40;;;;;;;0.70;62.62;101450.38;235191;1192;138337;-65
2023/02/07 19:51:40;;;;;;;;;;;;;;;;;;;;;
2023/02/07 20:05:34;;;;;;;;;;;;;;;;;;;;;
2023/02/07 20:11:25;;;;;;;70.10;37.30;;;;;;;0.90;61.91;101440.05;234721;1198;139280;-66
2023/02/07 20:17:50;;;;;;;66.60;37.30;;;;;;;0.87;61.95;101437.58;234600;1200;138357;-66
2023/02/07 20:23:56;;;;;;;65.10;35.00;;;;;;;0.85;61.83;101448.01;234706;1198;138762;-65
2023/02/07 20:29:23;;;;;;;;;;;;;;;;;;;;;
2023/02/07 20:35:32;;;;;;;196.90;110.70;;;;;;;0.80;65.37;101462.60;235283;1193;138224;-65
2023/02/07 20:41:50;;;;;;;;;;;;;;;;;;;;;
2023/02/07 20:47:30;;;;;;;67.50;35.30;;;;;;;1.23;62.11;101462.77;235222;1195;137860;-66
2023/02/07 20:53:40;;;;;;;60.60;33.80;;;;;;;1.10;61.95;101457.50;235330;1195;139415;-66
2023/02/07 20:59:24;;;;;;;60.70;33.20;;;;;;;1.00;61.92;101455.77;235060;1195;138558;-65
2023/02/07 21:05:29;;;;;;;64.40;34.90;;;;;;;0.97;61.97;101455.02;235110;1195;139080;-66
2023/02/07 21:11:45;;;;;;;;;;;;;;;;;;;;;
2023/02/07 21:17:23;;;;;;;;;;;;;;;;;;;;;
2023/02/07 21:23:37;;;;;;;;;;;;;;;;;;;;;
2023/02/07 21:29:52;;;;;;;63.50;34.40;;;;;;;0.75;62.74;101465.84;235419;1193;137945;-66
2023/02/07 21:35:40;;;;;;;180.70;113.00;;;;;;;0.79;64.53;101470.27;235285;1196;138500;-68
2023/02/07 21:42:22;;;;;;;;;;;;;;;;;;;;;
2023/02/07 21:48:19;;;;;;;58.60;30.90;;;;;;;0.94;62.78;101474.20;235728;1193;139294;-65
2023/02/07 21:54:15;;;;;;;50.80;28.10;;;;;;;0.90;62.72;101471.69;235690;1192;138839;-67
2023/02/07 22:02:45;;;;;;;;;;;;;;;;;;;;;
2023/02/07 22:08:25;;;;;;;53.20;29.80;;;;;;;0.94;63.01;101479.45;234762;1199;138530;-65
2023/02/07 22:14:31;;;;;;;;;;;;;;;;;;;;;
2023/02/07 22:27:49;;;;;;;47.10;26.10;;;;;;;0.90;62.60;101473.09;234872;1198;138398;-64
2023/02/07 22:33:29;;;;;;;51.50;27.40;;;;;;;0.90;62.59;101478.33;235051;1196;137767;-65
2023/02/07 22:38:57;;;;;;;50.70;28.10;;;;;;;0.89;62.82;101476.73;234819;1198;138408;-65
2023/02/07 22:45:23;;;;;;;54.60;30.00;;;;;;;0.82;62.95;101477.49;235157;1196;138233;-65
2023/02/07 22:51:53;;;;;;;50.10;28.70;;;;;;;0.81;63.11;101474.69;235267;1195;138540;-66
2023/02/07 22:57:53;;;;;;;56.00;30.80;;;;;;;0.86;63.09;101483.15;235585;1195;137897;-67
2023/02/07 23:03:17;;;;;;;64.80;32.60;;;;;;;0.83;63.13;101479.27;235825;1191;138233;-67
2023/02/07 23:09:04;;;;;;;;;;;;;;;;;;;;;
2023/02/07 23:15:11;;;;;;;55.90;29.90;;;;;;;0.85;62.93;101474.73;235359;1193;138348;-66
2023/02/07 23:20:26;;;;;;;65.20;32.90;;;;;;;0.88;62.90;101476.02;235420;1192;137685;-67
2023/02/07 23:26:04;;;;;;;;;;;;;;;;;;;;;
2023/02/07 23:32:18;;;;;;;;;;;;;;;;;;;;;
2023/02/07 23:38:05;;;;;;;;;;;;;;;;;;;;;
2023/02/07 23:43:38;;;;;;;;;;;;;;;;;;;;;
2023/02/07 23:49:32;;;;;;;49.60;27.40;;;;;;;0.89;63.22;101479.02;235434;1193;124643;-66
2023/02/07 23:55:19;;;;;;;50.20;27.00;;;;;;;0.90;63.30;101487.94;235331;1193;138618;-66
